Time;durP1;ratioP1;P1;durP2;ratioP2;P2;SDS_P1;SDS_P2;PMS_P1;PMS_P2;Temp;Humidity;BMP_temperature;BMP_pressure;BME280_temperature;BME280_humidity;BME280_pressure;Samples;Min_cycle;Max_cycle;Signal;HPM_P1;HPM_P2
2023/08/25 00:03:42;;;;;;;8.35;4.60;;;;;;;23.91;51.04;99688.03;7740742;32;39587;-84
2023/08/25 00:07:58;;;;;;;8.48;4.55;;;;;;;23.93;50.39;99674.56;7739979;32;37978;-84
2023/08/25 00:12:14;;;;;;;7.55;4.85;;;;;;;23.69;51.07;99669.22;7739982;32;37931;-84
2023/08/25 00:16:31;;;;;;;11.07;5.20;;;;;;;23.62;50.95;99665.09;7739681;32;39264;-84
2023/08/25 00:20:49;;;;;;;7.62;4.53;;;;;;;23.70;51.77;99671.66;7740748;32;40789;-84
2023/08/25 00:25:06;;;;;;;9.25;4.40;;;;;;;23.44;52.80;99672.25;7739630;32;39128;-84
2023/08/25 00:29:22;;;;;;;8.60;4.53;;;;;;;23.38;52.02;99682.03;7739748;32;38015;-84
2023/08/25 00:33:48;;;;;;;12.07;5.12;;;;;;;23.43;51.29;99670.63;7739537;32;39302;-84
2023/08/25 00:38:05;;;;;;;9.80;4.53;;;;;;;23.34;51.41;99690.28;7739379;32;40874;-83
2023/08/25 00:42:21;;;;;;;9.68;5.28;;;;;;;23.24;51.98;99688.84;7739539;32;38011;-84
2023/08/25 00:46:38;;;;;;;7.82;4.65;;;;;;;23.18;52.71;99687.53;7739439;32;36669;-84
2023/08/25 00:50:54;;;;;;;8.82;4.80;;;;;;;23.15;52.51;99684.66;7764699;32;40228;-84
2023/08/25 00:55:11;;;;;;;8.75;4.82;;;;;;;23.01;52.83;99685.09;7766278;32;40691;-84
2023/08/25 00:59:27;;;;;;;8.13;5.10;;;;;;;23.43;51.64;99674.22;7766324;32;37939;-83
2023/08/25 01:03:44;;;;;;;10.65;5.10;;;;;;;23.06;52.84;99670.94;7765331;32;36746;-83
2023/08/25 01:08:00;;;;;;;10.60;4.55;;;;;;;23.19;52.06;99668.88;7766246;32;39402;-84
2023/08/25 01:12:31;;;;;;;8.15;4.78;;;;;;;23.14;51.77;99661.59;7766045;32;39966;-83
2023/08/25 01:17:05;;;;;;;9.57;4.95;;;;;;;23.05;51.54;99652.59;7765808;32;37882;-83
2023/08/25 01:21:22;;;;;;;10.48;5.57;;;;;;;23.16;51.00;99655.66;7763230;32;38709;-84
2023/08/25 01:25:39;;;;;;;9.25;4.95;;;;;;;23.07;51.91;99675.31;7765970;32;40085;-84
2023/08/25 01:29:55;;;;;;;8.02;4.85;;;;;;;23.02;52.39;99679.13;7765868;32;39979;-84
2023/08/25 01:34:13;;;;;;;10.52;6.10;;;;;;;22.82;53.91;99663.56;7765912;32;37641;-84
2023/08/25 01:38:36;;;;;;;12.23;5.90;;;;;;;22.77;54.72;99658.25;7762562;32;37893;-84
2023/08/25 01:42:54;;;;;;;12.00;5.87;;;;;;;22.95;54.65;99653.16;7738929;32;39309;-84
2023/08/25 01:47:11;;;;;;;9.93;5.50;;;;;;;22.86;55.99;99656.91;7737579;32;39937;-84
2023/08/25 01:51:28;;;;;;;9.05;5.80;;;;;;;22.91;55.85;99655.03;7737552;32;38300;-84
2023/08/25 01:55:45;;;;;;;10.73;5.35;;;;;;;22.75;55.60;99639.16;7738685;32;36980;-84
2023/08/25 02:00:01;;;;;;;9.32;5.57;;;;;;;22.80;55.57;99625.00;7738538;32;39337;-84
2023/08/25 02:04:17;;;;;;;12.77;6.12;;;;;;;22.76;56.42;99612.97;7738707;32;39907;-84
2023/08/25 02:08:34;;;;;;;12.73;6.00;;;;;;;22.92;55.58;99612.16;7738526;32;37607;-84
2023/08/25 02:12:50;;;;;;;10.70;6.43;;;;;;;23.05;53.67;99605.34;7739295;32;37372;-84
2023/08/25 02:17:06;;;;;;;11.15;6.30;;;;;;;23.05;52.82;99608.12;7737982;32;39332;-83
2023/08/25 02:21:23;;;;;;;8.98;5.50;;;;;;;22.78;55.77;99610.63;7738307;32;39915;-84
2023/08/25 02:25:39;;;;;;;10.68;5.82;;;;;;;22.81;56.67;99604.37;7738102;32;38774;-84
2023/08/25 02:29:55;;;;;;;12.37;6.25;;;;;;;22.98;56.13;99602.41;7737093;32;36851;-83
2023/08/25 02:34:12;;;;;;;10.63;5.87;;;;;;;22.65;59.34;99612.72;7749648;32;39325;-84
2023/08/25 02:38:28;;;;;;;10.75;5.60;;;;;;;22.41;60.43;99599.78;7764010;32;40634;-84
2023/08/25 02:42:45;;;;;;;9.05;5.87;;;;;;;22.47;59.78;99598.38;7764847;32;38637;-83
2023/08/25 02:47:01;;;;;;;11.25;5.68;;;;;;;22.01;61.39;99633.97;7765237;32;37544;-84
2023/08/25 02:51:17;;;;;;;9.25;5.80;;;;;;;22.11;60.87;99640.97;7765088;32;38951;-83
2023/08/25 02:55:34;;;;;;;10.68;5.43;;;;;;;22.39;59.68;99651.31;7764851;32;40555;-83
2023/08/25 02:59:50;;;;;;;12.65;5.87;;;;;;;22.48;59.23;99680.50;7764723;32;38071;-83
2023/08/25 03:04:06;;;;;;;10.50;6.18;;;;;;;22.53;59.13;99670.31;7764644;32;37207;-83
2023/08/25 03:08:23;;;;;;;8.82;5.75;;;;;;;22.65;58.65;99682.16;7764649;32;39251;-83
2023/08/25 03:12:40;;;;;;;10.57;6.18;;;;;;;22.78;57.78;99666.22;7764704;32;40639;-82
2023/08/25 03:16:56;;;;;;;10.63;5.55;;;;;;;22.58;57.92;99681.19;7764272;32;38704;-82
2023/08/25 03:21:12;;;;;;;10.00;6.07;;;;;;;22.50;58.04;99667.06;7764473;32;37238;-82
2023/08/25 03:25:29;;;;;;;10.10;5.72;;;;;;;22.56;57.21;99647.38;7753804;32;39446;-82
2023/08/25 03:29:45;;;;;;;12.70;6.37;;;;;;;22.57;56.97;99666.47;7736394;32;40875;-82
2023/08/25 03:34:02;;;;;;;10.98;6.70;;;;;;;22.67;57.28;99665.13;7737109;32;37566;-83
2023/08/25 03:38:19;;;;;;;13.38;5.85;;;;;;;22.75;56.55;99672.50;7737144;32;37087;-83
2023/08/25 03:42:35;;;;;;;9.35;6.18;;;;;;;22.87;56.40;99714.13;7737062;32;39373;-81
2023/08/25 03:46:52;;;;;;;11.25;6.45;;;;;;;21.87;60.43;99728.69;7736992;32;40592;-82
2023/08/25 03:51:08;;;;;;;9.98;6.20;;;;;;;22.45;57.92;99691.53;7756288;32;38668;-82
2023/08/25 03:55:25;;;;;;;12.77;5.90;;;;;;;22.08;59.06;99714.66;7763654;32;37788;-82
2023/08/25 03:59:41;;;;;;;9.77;6.12;;;;;;;21.96;59.76;99733.31;7763684;32;39568;-82
2023/08/25 04:03:57;;;;;;;10.43;5.70;;;;;;;22.44;58.13;99728.81;7763509;32;40024;-82
2023/08/25 04:08:14;;;;;;;10.77;6.25;;;;;;;22.69;57.30;99713.63;7763195;32;38424;-82
2023/08/25 04:12:30;;;;;;;9.65;6.18;;;;;;;22.85;56.39;99683.09;7763264;32;37448;-82
2023/08/25 04:16:46;;;;;;;11.98;6.30;;;;;;;22.95;56.19;99665.06;7763095;32;40244;-82
2023/08/25 04:21:03;;;;;;;12.70;6.12;;;;;;;23.08;55.72;99645.53;7744804;32;39906;-83
2023/08/25 04:25:19;;;;;;;10.90;6.47;;;;;;;23.14;55.50;99644.09;7735742;32;37981;-82
2023/08/25 04:29:35;;;;;;;12.63;6.78;;;;;;;23.17;55.33;99623.94;7735883;32;37634;-82
2023/08/25 04:33:52;;;;;;;9.73;6.35;;;;;;;23.24;54.98;99624.91;7735730;32;39086;-82
2023/08/25 04:38:08;;;;;;;15.48;7.10;;;;;;;23.21;55.13;99614.50;7736539;32;40005;-83
2023/08/25 04:42:26;;;;;;;12.10;6.70;;;;;;;23.13;55.05;99604.37;7739583;32;38665;-82
2023/08/25 04:46:42;;;;;;;11.70;6.87;;;;;;;23.27;54.91;99586.41;7739468;32;37149;-82
2023/08/25 04:50:59;;;;;;;13.48;7.05;;;;;;;23.48;54.36;99580.53;7758112;32;39376;-82
2023/08/25 04:55:15;;;;;;;12.15;6.70;;;;;;;23.75;53.72;99600.97;7766349;32;40835;-83
2023/08/25 04:59:31;;;;;;;11.30;7.05;;;;;;;23.74;53.63;99610.50;7766278;32;37757;-83
2023/08/25 05:03:48;;;;;;;12.48;6.95;;;;;;;23.72;53.79;99601.72;7766300;32;36857;-82
2023/08/25 05:08:05;;;;;;;13.80;7.12;;;;;;;23.78;53.63;99577.97;7766114;32;39482;-82
2023/08/25 05:12:21;;;;;;;12.93;6.65;;;;;;;24.09;52.78;99563.09;7764728;32;39666;-82
2023/08/25 05:16:38;;;;;;;13.18;7.25;;;;;;;23.80;53.60;99565.31;7765873;32;38459;-82
2023/08/25 05:21:02;;;;;;;13.15;7.53;;;;;;;23.83;53.39;99602.75;7766133;32;37189;-82
2023/08/25 05:25:22;;;;;;;10.20;6.62;;;;;;;23.65;53.86;99612.69;7766057;32;39185;-82
2023/08/25 05:29:38;;;;;;;16.77;7.28;;;;;;;23.48;54.33;99592.47;7764841;32;40060;-82
2023/08/25 05:33:55;;;;;;;15.50;7.43;;;;;;;23.43;54.87;99584.41;7765704;32;38204;-83
2023/08/25 05:38:11;;;;;;;14.95;7.95;;;;;;;23.12;55.87;99613.09;7765736;32;37406;-82
2023/08/25 05:42:28;;;;;;;11.60;7.28;;;;;;;23.13;56.90;99626.63;7765803;32;40043;-82
2023/08/25 05:46:45;;;;;;;11.45;6.90;;;;;;;23.41;56.74;99631.25;7765664;32;39911;-82
2023/08/25 05:51:01;;;;;;;11.38;7.28;;;;;;;23.77;56.39;99616.16;7742596;32;38762;-83
2023/08/25 05:55:18;;;;;;;12.10;6.75;;;;;;;23.97;55.86;99591.94;7738756;32;37999;-82
2023/08/25 05:59:34;;;;;;;11.85;7.03;;;;;;;24.17;54.91;99525.06;7738644;32;39680;-83
2023/08/25 06:03:50;;;;;;;13.75;6.40;;;;;;;24.15;54.90;99572.00;7738613;32;40025;-83
2023/08/25 06:08:07;;;;;;;13.85;7.47;;;;;;;24.19;54.33;99570.06;7738372;32;37837;-82
2023/08/25 06:12:23;;;;;;;14.30;6.30;;;;;;;24.22;54.32;99580.47;7738390;32;37158;-84
2023/08/25 06:16:41;;;;;;;12.68;7.15;;;;;;;24.59;54.06;99584.72;7738278;32;38951;-84
2023/08/25 06:20:58;;;;;;;11.30;7.30;;;;;;;24.73;53.51;99594.16;7737211;32;40257;-76
2023/08/25 06:25:15;;;;;;;11.80;6.57;;;;;;;25.03;52.69;99585.06;7738194;32;38622;-69
2023/08/25 06:29:31;;;;;;;17.42;7.78;;;;;;;24.98;52.37;99568.66;7738254;32;37198;-67
2023/08/25 06:33:47;;;;;;;12.50;7.50;;;;;;;25.29;50.79;99569.53;7738211;32;39818;-66
2023/08/25 06:38:04;;;;;;;11.52;7.28;;;;;;;25.50;50.58;99580.19;7738049;32;40530;-66
2023/08/25 06:42:21;;;;;;;11.77;7.12;;;;;;;25.65;50.28;99582.00;7737432;32;37955;-66
2023/08/25 06:46:37;;;;;;;13.73;7.35;;;;;;;25.97;49.53;99583.59;7738347;32;37848;-67
2023/08/25 06:50:54;;;;;;;16.00;7.62;;;;;;;26.13;48.78;99577.78;7737772;32;38968;-66
2023/08/25 06:55:11;;;;;;;12.80;7.75;;;;;;;26.28;48.48;99573.16;7737944;32;40005;-66
2023/08/25 06:59:27;;;;;;;11.95;7.30;;;;;;;26.25;48.79;99571.94;7737475;32;37829;-68
2023/08/25 07:03:44;;;;;;;13.85;6.97;;;;;;;26.55;47.50;99582.22;7736778;32;36194;-66
2023/08/25 07:08:00;;;;;;;10.60;6.93;;;;;;;25.79;50.95;99602.91;7723757;32;40024;-67
2023/08/25 07:12:16;;;;;;;14.30;7.15;;;;;;;25.13;53.47;99611.53;7736345;32;38284;-67
2023/08/25 07:16:33;;;;;;;14.75;7.53;;;;;;;25.57;51.75;99621.34;7737357;32;37851;-67
2023/08/25 07:20:49;;;;;;;12.80;7.03;;;;;;;25.74;51.92;99629.16;7737952;32;35282;-67
2023/08/25 07:25:06;;;;;;;11.40;7.40;;;;;;;25.84;50.98;99625.69;7737432;32;39371;-72
2023/08/25 07:29:22;;;;;;;11.48;7.10;;;;;;;25.98;50.51;99621.53;7737315;32;40015;-74
2023/08/25 07:33:39;;;;;;;15.15;7.40;;;;;;;26.04;50.07;99614.41;7737328;32;38667;-71
2023/08/25 07:37:56;;;;;;;13.25;7.22;;;;;;;26.05;50.34;99602.03;7737289;32;37663;-71
2023/08/25 07:42:12;;;;;;;12.00;7.35;;;;;;;26.52;49.25;99606.13;7734983;32;40041;-69
2023/08/25 07:46:29;;;;;;;13.52;6.75;;;;;;;26.59;47.61;99609.00;7761826;32;39786;-70
2023/08/25 07:50:45;;;;;;;11.57;6.75;;;;;;;26.53;48.42;99609.75;7739078;32;37960;-72
2023/08/25 07:55:01;;;;;;;13.25;6.78;;;;;;;26.86;47.43;99600.47;7762134;32;36837;-71
2023/08/25 07:59:18;;;;;;;11.60;7.03;;;;;;;27.18;47.42;99608.28;7762863;32;39311;-70
2023/08/25 08:03:34;;;;;;;15.85;6.45;;;;;;;27.37;47.60;99603.66;7761464;32;39947;-71
2023/08/25 08:07:50;;;;;;;13.65;7.00;;;;;;;27.32;47.55;99594.44;7762219;32;39086;-69
2023/08/25 08:12:07;;;;;;;12.98;7.03;;;;;;;27.81;46.50;99594.31;7762524;32;37894;-70
2023/08/25 08:16:24;;;;;;;15.93;6.70;;;;;;;27.47;46.37;99603.72;7764612;32;39010;-70
2023/08/25 08:20:42;;;;;;;11.30;5.93;;;;;;;26.56;47.89;99606.16;7763122;32;39837;-70
2023/08/25 08:24:59;;;;;;;11.35;5.15;;;;;;;27.44;45.60;99584.94;7751215;32;37995;-71
2023/08/25 08:29:15;;;;;;;7.65;4.97;;;;;;;28.13;43.88;99593.62;7752622;32;38745;-70
2023/08/25 08:33:35;;;;;;;9.75;5.10;;;;;;;28.07;43.81;99596.81;7760581;32;39815;-70
2023/08/25 08:37:51;;;;;;;9.57;4.87;;;;;;;28.37;43.26;99590.09;7738645;32;39684;-71
2023/08/25 08:42:09;;;;;;;10.75;4.95;;;;;;;28.51;42.68;99586.53;7739465;32;37937;-71
2023/08/25 08:46:28;;;;;;;8.88;4.85;;;;;;;28.32;43.86;99584.06;7739406;32;36888;-71
2023/08/25 08:50:46;;;;;;;11.30;5.03;;;;;;;28.22;44.04;99580.06;7746143;32;39306;-72
2023/08/25 08:55:05;;;;;;;12.23;4.95;;;;;;;28.58;42.71;99574.50;7751238;32;39986;-72
2023/08/25 08:59:22;;;;;;;10.40;4.97;;;;;;;28.80;42.62;99564.09;7751220;32;37626;-72
2023/08/25 09:03:39;;;;;;;9.77;4.97;;;;;;;29.33;41.27;99579.31;7752281;32;37227;-71
2023/08/25 09:08:07;;;;;;;12.88;5.20;;;;;;;28.98;41.56;99575.34;7752264;32;39807;-71
2023/08/25 09:12:23;;;;;;;9.55;4.40;;;;;;;29.55;40.79;99578.03;7750474;32;39985;-81
2023/08/25 09:16:41;;;;;;;7.22;4.70;;;;;;;29.88;40.85;99575.94;7751619;32;39127;-81
2023/08/25 09:21:03;;;;;;;11.85;4.93;;;;;;;30.08;40.21;99578.22;7749497;32;37836;-80
2023/08/25 09:25:20;;;;;;;9.55;4.53;;;;;;;29.95;40.39;99570.25;7753353;32;38974;-83
2023/08/25 09:29:42;;;;;;;8.10;4.80;;;;;;;29.32;41.20;99570.09;7762921;32;39962;-84
2023/08/25 09:34:00;;;;;;;10.55;4.47;;;;;;;30.13;39.78;99569.38;7742544;32;37831;-83
2023/08/25 09:38:21;;;;;;;8.27;4.05;;;;;;;29.88;40.47;99575.94;7743324;32;36975;-83
2023/08/25 09:42:38;;;;;;;7.07;4.10;;;;;;;29.98;40.01;99570.66;7751703;32;38919;-70
2023/08/25 09:46:54;;;;;;;8.88;3.47;;;;;;;30.21;39.25;99556.88;7764929;32;40000;-76
2023/08/25 09:51:11;;;;;;;9.30;3.83;;;;;;;30.74;38.14;99562.56;7765574;32;38665;-76
2023/08/25 09:55:27;;;;;;;8.80;3.42;;;;;;;30.13;38.18;99555.31;7762830;32;37422;-74
2023/08/25 09:59:44;;;;;;;6.68;3.70;;;;;;;30.54;38.81;99557.47;7764463;32;38992;-75
2023/08/25 10:04:01;;;;;;;10.15;4.10;;;;;;;29.98;38.60;99557.41;7745254;32;40017;-74
2023/08/25 10:08:18;;;;;;;10.13;3.62;;;;;;;30.76;38.22;99554.50;7764211;32;37636;-70
2023/08/25 10:12:38;;;;;;;8.88;3.67;;;;;;;30.98;37.50;99555.94;7756695;32;37229;-85
2023/08/25 10:16:55;;;;;;;5.10;3.00;;;;;;;31.06;36.43;99548.19;7762271;32;39355;-85
2023/08/25 10:21:13;;;;;;;9.65;3.10;;;;;;;31.49;35.40;99546.94;7764364;32;40897;-83
2023/08/25 10:25:30;;;;;;;8.70;3.50;;;;;;;31.29;35.10;99539.13;7749968;32;38727;-84
2023/08/25 10:29:49;;;;;;;5.12;2.70;;;;;;;31.29;35.75;99536.31;7754883;32;36856;-83
2023/08/25 10:34:26;;;;;;;11.30;3.55;;;;;;;31.98;35.57;99527.81;7746743;32;39844;-84
2023/08/25 10:39:06;;;;;;;8.40;3.20;;;;;;;31.82;35.35;99532.06;7759706;32;40972;-84
2023/08/25 10:43:36;;;;;;;9.57;3.20;;;;;;;31.91;35.85;99525.91;7740230;32;38588;-74
2023/08/25 10:47:52;;;;;;;16.23;4.07;;;;;;;32.25;34.28;99522.19;7764959;32;35374;-73
2023/08/25 10:52:16;;;;;;;6.97;3.40;;;;;;;32.62;33.81;99523.25;7764917;32;39435;-73
2023/08/25 10:56:33;;;;;;;6.20;3.30;;;;;;;32.41;34.37;99518.75;7750378;32;40109;-75
2023/08/25 11:01:00;;;;;;;5.43;2.95;;;;;;;32.45;33.80;99518.69;7764681;32;37715;-75
2023/08/25 11:05:36;;;;;;;6.25;2.85;;;;;;;33.14;33.34;99502.19;7751576;32;37086;-88
2023/08/25 11:10:10;;;;;;;5.30;2.80;;;;;;;33.63;31.29;99499.56;7740282;32;39325;-85
2023/08/25 11:14:34;;;;;;;4.72;2.70;;;;;;;33.94;31.28;99507.75;7736510;32;39932;-86
2023/08/25 11:18:51;;;;;;;5.18;2.78;;;;;;;33.78;30.72;99504.91;7758593;32;37847;-88
2023/08/25 11:23:07;;;;;;;6.70;2.72;;;;;;;34.09;31.72;99496.94;7759498;32;37357;-88
2023/08/25 11:27:35;;;;;;;4.78;2.53;;;;;;;33.72;30.27;99495.34;7737479;32;39273;-87
2023/08/25 11:31:52;;;;;;;5.87;2.60;;;;;;;33.89;31.13;99488.50;7738354;32;39731;-87
2023/08/25 11:36:15;;;;;;;4.85;2.10;;;;;;;33.12;31.41;99498.97;7762939;32;38763;-86
2023/08/25 11:40:32;;;;;;;4.12;2.60;;;;;;;32.95;32.45;99486.78;7760224;32;37777;-84
2023/08/25 11:44:50;;;;;;;6.95;2.53;;;;;;;33.84;30.94;99489.00;7742722;32;39339;-86
2023/08/25 11:49:07;;;;;;;6.50;2.87;;;;;;;33.43;30.27;99501.59;7738323;32;40073;-86
2023/08/25 11:53:23;;;;;;;8.25;2.60;;;;;;;34.03;30.91;99491.00;7741463;32;38041;-86
2023/08/25 11:57:40;;;;;;;5.55;2.33;;;;;;;33.93;30.89;99485.63;7748582;32;36646;-86
2023/08/25 12:02:01;;;;;;;10.15;3.10;;;;;;;34.48;30.35;99483.91;7765650;32;37516;-85
2023/08/25 12:06:17;;;;;;;7.95;3.00;;;;;;;34.76;28.88;99488.03;7765880;32;40796;-83
2023/08/25 12:10:39;;;;;;;5.45;2.33;;;;;;;35.39;28.32;99483.06;7766861;32;38717;-85
2023/08/25 12:14:55;;;;;;;6.22;2.47;;;;;;;34.68;28.91;99492.25;7766903;32;37153;-84
2023/08/25 12:19:12;;;;;;;10.13;2.58;;;;;;;34.75;28.39;99480.78;7766647;32;39028;-86
2023/08/25 12:23:39;;;;;;;6.60;2.20;;;;;;;35.38;28.13;99467.34;7757925;32;40073;-86
2023/08/25 12:27:56;;;;;;;5.75;2.40;;;;;;;34.95;28.57;99477.03;7751818;32;39522;-87
2023/08/25 12:32:12;;;;;;;6.68;2.45;;;;;;;34.98;27.47;99467.66;7752989;32;37068;-84
2023/08/25 12:36:29;;;;;;;13.43;2.28;;;;;;;35.38;28.88;99456.00;7751561;32;39321;-86
2023/08/25 12:40:45;;;;;;;7.97;2.30;;;;;;;35.99;27.24;99459.03;7753608;32;40055;-86
2023/08/25 12:45:02;;;;;;;10.27;2.03;;;;;;;35.63;26.61;99457.28;7752302;32;37715;-85
2023/08/25 12:49:19;;;;;;;5.87;2.25;;;;;;;36.06;25.96;99444.59;7752756;32;37355;-86
2023/08/25 12:53:35;;;;;;;4.55;2.00;;;;;;;35.93;26.92;99441.78;7752451;32;39903;-85
2023/08/25 12:57:54;;;;;;;4.93;2.03;;;;;;;36.81;27.24;99438.47;7751368;32;39891;-85
2023/08/25 13:02:13;;;;;;;5.25;2.20;;;;;;;36.92;24.39;99436.00;7752540;32;37986;-84
2023/08/25 13:06:32;;;;;;;4.62;1.98;;;;;;;36.65;24.86;99437.34;7751149;32;37888;-86
2023/08/25 13:10:51;;;;;;;7.57;1.90;;;;;;;36.50;25.35;99433.44;7752475;32;39310;-87
2023/08/25 13:15:10;;;;;;;4.97;1.98;;;;;;;36.43;25.67;99436.53;7752324;32;40005;-84
2023/08/25 13:19:27;;;;;;;4.93;2.10;;;;;;;36.78;25.17;99431.63;7751003;32;36717;-86
2023/08/25 13:23:43;;;;;;;7.32;2.00;;;;;;;36.63;25.65;99436.22;7758887;32;37650;-84
2023/08/25 13:28:20;;;;;;;5.70;1.70;;;;;;;36.55;25.90;99429.19;7765745;32;40440;-86
2023/08/25 13:32:36;;;;;;;5.62;1.85;;;;;;;36.49;25.91;99425.38;7765945;32;40141;-86
2023/08/25 13:36:53;;;;;;;5.45;2.17;;;;;;;36.17;25.73;99428.03;7751906;32;38011;-87
2023/08/25 13:41:09;;;;;;;7.72;2.47;;;;;;;36.54;25.81;99422.72;7752134;32;37121;-86
2023/08/25 13:45:26;;;;;;;7.10;2.60;;;;;;;37.07;26.24;99409.91;7742567;32;39116;-79
2023/08/25 13:49:42;;;;;;;3.60;1.92;;;;;;;37.05;25.13;99413.22;7738681;32;40666;-84
2023/08/25 13:53:59;;;;;;;3.42;2.10;;;;;;;36.80;25.55;99423.44;7738748;32;38079;-81
2023/08/25 13:58:16;;;;;;;4.03;1.95;;;;;;;36.15;26.26;99419.16;7738726;32;37147;-84
2023/08/25 14:02:33;;;;;;;4.90;2.10;;;;;;;36.43;26.03;99416.66;7738530;32;40033;-85
2023/08/25 14:06:50;;;;;;;7.20;2.20;;;;;;;36.78;25.08;99413.81;7738295;32;40854;-83
2023/08/25 14:11:06;;;;;;;4.78;2.03;;;;;;;36.78;25.45;99420.28;7737922;32;37965;-84
2023/08/25 14:15:23;;;;;;;4.80;1.87;;;;;;;36.63;26.04;99419.97;7737965;32;37204;-83
2023/08/25 14:19:39;;;;;;;5.70;1.75;;;;;;;35.87;26.76;99409.56;7738028;32;40212;-83
2023/08/25 14:23:56;;;;;;;5.60;2.25;;;;;;;36.71;26.70;99408.41;7738423;32;39649;-84
2023/08/25 14:28:16;;;;;;;4.37;1.87;;;;;;;36.77;26.45;99412.22;7738258;32;37879;-85
2023/08/25 14:32:33;;;;;;;9.85;2.20;;;;;;;36.99;26.70;99407.34;7738207;32;37412;-83
2023/08/25 14:36:49;;;;;;;3.33;2.00;;;;;;;36.44;27.80;99419.00;7740605;32;39977;-82
2023/08/25 14:41:07;;;;;;;6.37;2.55;;;;;;;35.35;29.63;99426.50;7750580;32;39757;-84
2023/08/25 14:45:23;;;;;;;6.07;2.58;;;;;;;34.95;30.90;99415.53;7741423;32;38982;-81
2023/08/25 14:49:40;;;;;;;7.20;2.50;;;;;;;34.74;31.08;99416.91;7738106;32;37245;-82
2023/08/25 14:53:56;;;;;;;7.37;2.70;;;;;;;34.48;31.79;99421.66;7737841;32;39393;-82
2023/08/25 14:58:13;;;;;;;6.47;2.55;;;;;;;34.40;31.86;99420.25;7738016;32;40821;-82
2023/08/25 15:02:30;;;;;;;7.15;2.80;;;;;;;34.68;31.61;99407.34;7743671;32;38738;-81
2023/08/25 15:06:46;;;;;;;7.75;2.92;;;;;;;34.64;31.84;99408.69;7739245;32;37188;-82
2023/08/25 15:11:06;;;;;;;15.60;3.20;;;;;;;34.25;32.30;99414.13;7751793;32;40100;-83
2023/08/25 15:15:22;;;;;;;10.07;3.28;;;;;;;33.91;32.67;99415.38;7757364;32;40597;-82
2023/08/25 15:19:39;;;;;;;5.37;2.53;;;;;;;33.76;33.07;99412.09;7764609;32;38514;-82
2023/08/25 15:23:56;;;;;;;8.13;2.80;;;;;;;33.68;32.96;99405.81;7757460;32;36753;-82
2023/08/25 15:28:12;;;;;;;7.00;2.55;;;;;;;33.75;32.93;99399.16;7737166;32;39260;-82
2023/08/25 15:32:29;;;;;;;6.95;2.80;;;;;;;34.22;32.55;99389.56;7759932;32;40031;-82
2023/08/25 15:36:45;;;;;;;8.65;2.80;;;;;;;34.56;31.44;99383.41;7764048;32;38067;-82
2023/08/25 15:41:06;;;;;;;5.82;2.80;;;;;;;34.59;31.45;99388.19;7744814;32;37550;-81
2023/08/25 15:45:22;;;;;;;6.90;2.70;;;;;;;34.68;30.53;99381.09;7736540;32;39525;-82
2023/08/25 15:49:40;;;;;;;9.85;2.85;;;;;;;34.54;30.34;99396.41;7736213;32;39945;-81
2023/08/25 15:53:56;;;;;;;4.47;2.80;;;;;;;34.25;31.70;99397.16;7735064;32;38052;-81
2023/08/25 15:58:13;;;;;;;8.25;3.28;;;;;;;34.41;31.33;99388.66;7736583;32;37793;-81
2023/08/25 16:02:31;;;;;;;6.50;2.70;;;;;;;34.90;31.20;99381.31;7735342;32;39011;-81
2023/08/25 16:06:48;;;;;;;6.62;2.83;;;;;;;34.61;31.16;99390.56;7736500;32;41273;-82
2023/08/25 16:11:08;;;;;;;6.78;2.50;;;;;;;34.93;30.71;99386.88;7735558;32;37874;-82
2023/08/25 16:15:29;;;;;;;7.32;2.60;;;;;;;35.25;30.60;99399.28;7736008;32;37054;-82
2023/08/25 16:19:45;;;;;;;5.07;2.40;;;;;;;35.48;29.74;99389.72;7735841;32;40120;-82
2023/08/25 16:24:03;;;;;;;7.18;2.85;;;;;;;35.61;29.64;99388.91;7735163;32;39728;-81
2023/08/25 16:28:22;;;;;;;5.30;2.45;;;;;;;35.36;30.34;99390.50;7735833;32;39674;-82
2023/08/25 16:32:44;;;;;;;10.07;2.70;;;;;;;35.45;29.52;99379.28;7734954;32;36042;-82
2023/08/25 16:37:01;;;;;;;4.60;2.22;;;;;;;35.27;30.07;99384.69;7739426;32;39527;-82
2023/08/25 16:41:18;;;;;;;5.70;2.45;;;;;;;35.31;29.63;99368.37;7738951;32;39616;-82
2023/08/25 16:45:34;;;;;;;5.07;2.28;;;;;;;35.24;30.01;99374.25;7739167;32;37941;-82
2023/08/25 16:49:51;;;;;;;4.25;2.25;;;;;;;35.06;30.40;99374.78;7739132;32;37035;-83
2023/08/25 16:54:08;;;;;;;7.87;2.40;;;;;;;34.96;29.96;99368.16;7738440;32;40236;-82
2023/08/25 16:58:27;;;;;;;5.70;2.40;;;;;;;35.31;29.83;99376.87;7739291;32;40806;-82
2023/08/25 17:02:45;;;;;;;11.07;3.00;;;;;;;35.08;30.10;99373.09;7738054;32;38713;-81
2023/08/25 17:07:01;;;;;;;6.20;2.37;;;;;;;35.10;30.45;99367.75;7739167;32;37119;-83
2023/08/25 17:11:18;;;;;;;6.07;2.42;;;;;;;35.20;31.46;99374.31;7751476;32;38961;-82
2023/08/25 17:15:36;;;;;;;7.65;2.55;;;;;;;35.22;30.45;99368.25;7750180;32;40006;-82
2023/08/25 17:19:53;;;;;;;8.15;2.53;;;;;;;35.61;29.75;99363.41;7751049;32;38682;-81
2023/08/25 17:24:09;;;;;;;14.73;3.28;;;;;;;35.37;31.37;99358.06;7747451;32;37230;-81
2023/08/25 17:28:31;;;;;;;6.25;2.30;;;;;;;35.00;31.88;99351.88;7754143;32;41020;-82
2023/08/25 17:32:48;;;;;;;9.35;2.60;;;;;;;34.59;33.09;99359.09;7751084;32;39785;-88
2023/08/25 17:37:06;;;;;;;7.28;3.00;;;;;;;34.27;33.55;99362.78;7746955;32;38583;-87
2023/08/25 17:41:22;;;;;;;6.60;2.55;;;;;;;33.95;34.38;99373.66;7742340;32;37060;-86
2023/08/25 17:45:39;;;;;;;9.10;2.70;;;;;;;33.65;35.00;99367.09;7763448;32;40124;-85
2023/08/25 17:49:55;;;;;;;9.52;3.20;;;;;;;33.22;35.30;99368.06;7748727;32;40045;-88
2023/08/25 17:54:12;;;;;;;6.85;2.75;;;;;;;32.90;36.06;99375.16;7756026;32;37548;-87
2023/08/25 17:58:28;;;;;;;10.07;3.15;;;;;;;32.40;38.19;99375.31;7738772;32;36857;-88
2023/08/25 18:02:45;;;;;;;16.27;3.08;;;;;;;32.35;38.28;99379.41;7738526;32;39980;-88
2023/08/25 18:07:02;;;;;;;7.15;3.37;;;;;;;31.68;40.15;99390.56;7758982;32;40852;-82
2023/08/25 18:11:21;;;;;;;7.78;3.35;;;;;;;31.80;39.81;99399.22;7780495;32;37858;-83
2023/08/25 18:15:50;;;;;;;14.32;3.45;;;;;;;31.64;40.25;99404.72;7775462;32;37885;-82
2023/08/25 18:20:11;;;;;;;21.23;4.05;;;;;;;31.29;41.06;99420.88;7765393;32;39263;-84
2023/08/25 18:24:36;;;;;;;9.15;3.65;;;;;;;31.14;41.41;99416.63;7754092;32;39699;-84
2023/08/25 18:28:55;;;;;;;14.38;5.60;;;;;;;31.10;40.67;99413.03;7761354;32;38723;-84
2023/08/25 18:33:13;;;;;;;20.70;7.12;;;;;;;30.90;40.61;99425.69;7749864;32;36908;-86
2023/08/25 18:37:30;;;;;;;12.18;3.62;;;;;;;30.90;40.62;99431.31;7738978;32;39056;-82
2023/08/25 18:41:49;;;;;;;7.75;2.40;;;;;;;30.67;41.24;99434.00;7747111;32;40521;-84
2023/08/25 18:46:27;;;;;;;8.82;3.95;;;;;;;30.64;41.39;99434.84;7750624;32;38082;-82
2023/08/25 18:50:50;;;;;;;11.50;4.22;;;;;;;30.35;42.02;99440.72;7749969;32;36723;-82
2023/08/25 18:55:18;;;;;;;7.15;3.53;;;;;;;30.17;42.16;99449.28;7749723;32;39475;-83
2023/08/25 18:59:35;;;;;;;11.45;3.20;;;;;;;30.00;42.54;99451.03;7749180;32;40837;-82
2023/08/25 19:03:51;;;;;;;9.75;3.50;;;;;;;29.96;42.82;99448.25;7737800;32;37879;-81
2023/08/25 19:08:07;;;;;;;8.73;3.37;;;;;;;29.90;43.55;99458.31;7736463;32;37970;-81
2023/08/25 19:12:24;;;;;;;10.07;3.58;;;;;;;29.96;44.09;99459.47;7737265;32;39015;-80
2023/08/25 19:16:42;;;;;;;211.60;107.68;;;;;;;29.64;45.13;99453.22;7748082;32;39890;-80
2023/08/25 19:21:02;;;;;;;33.25;17.60;;;;;;;29.59;45.26;99460.06;7749211;32;37799;-80
2023/08/25 19:25:20;;;;;;;7.15;3.42;;;;;;;29.35;46.02;99462.59;7748087;32;37486;-80
2023/08/25 19:29:38;;;;;;;8.45;4.20;;;;;;;29.30;45.97;99462.22;7748768;32;39227;-81
2023/08/25 19:34:02;;;;;;;5.03;2.77;;;;;;;29.24;46.22;99459.03;7748092;32;40069;-80
2023/08/25 19:38:22;;;;;;;10.65;3.25;;;;;;;29.10;46.67;99448.62;7747773;32;38461;-81
2023/08/25 19:42:43;;;;;;;60.55;34.30;;;;;;;28.90;47.14;99447.47;7748724;32;37927;-82
2023/08/25 19:47:01;;;;;;;13.23;5.95;;;;;;;28.94;47.14;99437.03;7747646;32;39297;-81
2023/08/25 19:51:18;;;;;;;12.43;4.03;;;;;;;28.78;47.46;99448.72;7746322;32;40075;-80
2023/08/25 19:55:40;;;;;;;11.65;5.32;;;;;;;28.72;47.39;99442.72;7747741;32;37735;-81
2023/08/25 19:59:58;;;;;;;8.10;3.90;;;;;;;28.64;47.53;99429.91;7747682;32;38048;-78
2023/08/25 20:04:23;;;;;;;11.38;3.72;;;;;;;28.44;48.26;99435.94;7747881;32;40045;-82
2023/08/25 20:08:42;;;;;;;11.32;4.12;;;;;;;28.47;48.11;99443.50;7747798;32;39931;-82